Time;durP1;ratioP1;P1;durP2;ratioP2;P2;SDS_P1;SDS_P2;PMS_P1;PMS_P2;Temp;Humidity;BMP_temperature;BMP_pressure;BME280_temperature;BME280_humidity;BME280_pressure;Samples;Min_cycle;Max_cycle;Signal;HPM_P1;HPM_P2
2023/01/14 00:01:21;;;;;;;25.15;3.60;;;;;;;7.44;97.37;101554.75;5025961;28;20043;-74
2023/01/14 00:03:47;;;;;;;24.15;4.10;;;;;;;7.43;97.17;101544.00;5027618;28;20030;-74
2023/01/14 00:06:16;;;;;;;20.45;3.80;;;;;;;7.40;97.45;101536.13;5018125;28;20037;-74
2023/01/14 00:08:41;;;;;;;24.30;5.18;;;;;;;7.40;96.90;101525.25;5022199;28;20413;-74
2023/01/14 00:11:10;;;;;;;26.15;5.18;;;;;;;7.37;96.84;101523.69;5021668;28;20035;-75
2023/01/14 00:13:37;;;;;;;30.58;4.30;;;;;;;7.34;96.39;101534.06;5028344;28;20370;-74
2023/01/14 00:16:04;;;;;;;21.27;4.22;;;;;;;7.18;97.05;101518.47;5027884;28;20052;-74
2023/01/14 00:18:32;;;;;;;33.75;5.28;;;;;;;7.15;97.98;101532.38;5023350;28;20159;-73
2023/01/14 00:21:12;;;;;;;27.48;4.90;;;;;;;7.22;96.95;101524.44;5023702;28;20048;-76
2023/01/14 00:23:38;;;;;;;33.70;3.95;;;;;;;7.20;96.53;101524.59;5018539;28;20025;-75
2023/01/14 00:26:12;;;;;;;25.05;4.03;;;;;;;7.10;96.55;101528.44;5023178;28;20490;-73
2023/01/14 00:28:37;;;;;;;34.05;4.28;;;;;;;7.08;97.17;101535.91;5022641;28;20034;-73
2023/01/14 00:31:14;;;;;;;38.55;5.32;;;;;;;7.04;97.29;101527.19;5026120;28;20500;-74
2023/01/14 00:33:41;;;;;;;29.20;4.30;;;;;;;7.04;97.39;101523.63;5022850;28;20484;-74
2023/01/14 00:36:13;;;;;;;30.75;4.35;;;;;;;6.96;97.22;101521.69;5019700;28;20033;-75
2023/01/14 00:38:39;;;;;;;31.25;4.57;;;;;;;7.01;96.64;101529.38;5010812;28;20033;-75
2023/01/14 00:41:20;;;;;;;22.67;3.97;;;;;;;6.89;97.33;101538.81;5023776;28;20030;-73
2023/01/14 00:43:49;;;;;;;25.27;5.15;;;;;;;6.95;96.74;101539.03;5023224;28;20021;-75
2023/01/14 00:46:17;;;;;;;27.92;5.13;;;;;;;6.91;96.91;101540.38;5024731;28;20068;-73
2023/01/14 00:48:44;;;;;;;30.10;3.83;;;;;;;6.84;97.83;101546.59;5021335;28;20489;-72
2023/01/14 00:51:10;;;;;;;;;;;;;;;6.77;98.45;101553.66;5020983;28;20037;-74
2023/01/14 00:53:37;;;;;;;19.00;2.88;;;;;;;6.77;98.65;101553.66;5024790;28;19916;-74
2023/01/14 00:56:03;;;;;;;37.03;4.28;;;;;;;6.75;98.66;101544.81;5018133;28;20195;-76
2023/01/14 00:58:30;;;;;;;28.40;4.40;;;;;;;6.68;99.51;101549.16;5023812;28;20374;-74
2023/01/14 01:00:56;;;;;;;26.17;4.35;;;;;;;6.61;99.25;101550.78;5020396;28;20017;-77
2023/01/14 01:03:22;;;;;;;15.52;3.40;;;;;;;6.62;99.58;101544.34;5024726;28;20030;-74
2023/01/14 01:05:48;;;;;;;25.05;4.50;;;;;;;6.56;99.91;101548.53;5020066;28;20021;-73
2023/01/14 01:08:16;;;;;;;23.58;4.30;;;;;;;6.45;100.00;101548.75;5020431;28;20044;-74
2023/01/14 01:10:43;;;;;;;25.90;5.38;;;;;;;6.46;100.00;101553.19;5018879;28;20766;-74
2023/01/14 01:13:08;;;;;;;;;;;;;;;6.39;100.00;101548.50;5021249;28;20426;-74
2023/01/14 01:15:35;;;;;;;33.55;4.15;;;;;;;6.32;100.00;101544.69;5022016;28;20019;-73
2023/01/14 01:18:02;;;;;;;28.25;5.35;;;;;;;6.21;100.00;101532.19;5019502;28;20037;-73
2023/01/14 01:20:29;;;;;;;18.63;3.15;;;;;;;6.20;100.00;101535.03;5024981;28;20076;-74
2023/01/14 01:22:55;;;;;;;22.35;4.90;;;;;;;6.09;100.00;101533.38;5026567;28;20061;-74
2023/01/14 01:25:21;;;;;;;29.27;5.10;;;;;;;6.10;100.00;101534.25;5025893;28;20457;-74
2023/01/14 01:27:46;;;;;;;29.92;4.13;;;;;;;6.03;100.00;101536.69;5021900;28;20083;-73
2023/01/14 01:30:12;;;;;;;24.15;3.65;;;;;;;6.07;100.00;101538.13;5020435;28;20492;-74
2023/01/14 01:32:38;;;;;;;29.67;4.97;;;;;;;6.02;100.00;101536.84;5020721;28;20022;-72
2023/01/14 01:35:04;;;;;;;27.58;4.70;;;;;;;6.00;100.00;101547.03;5024864;28;20438;-74
2023/01/14 01:37:30;;;;;;;19.50;3.95;;;;;;;6.04;100.00;101543.00;5027435;28;20635;-74
2023/01/14 01:39:55;;;;;;;35.55;5.07;;;;;;;5.97;100.00;101542.75;5021820;28;20046;-73
2023/01/14 01:42:23;;;;;;;33.53;5.22;;;;;;;5.96;100.00;101540.16;5025666;28;20485;-74
2023/01/14 01:44:51;;;;;;;37.17;5.45;;;;;;;5.92;100.00;101542.34;5020345;28;20141;-74
2023/01/14 01:47:18;;;;;;;36.70;4.78;;;;;;;5.90;100.00;101536.22;5023851;28;20028;-74
2023/01/14 01:49:45;;;;;;;24.20;4.50;;;;;;;5.89;100.00;101529.06;5014864;28;20033;-73
2023/01/14 01:52:20;;;;;;;39.00;4.97;;;;;;;6.00;100.00;101530.72;5018095;28;20062;-74
2023/01/14 01:54:50;;;;;;;20.50;4.30;;;;;;;5.91;100.00;101537.03;5020218;28;20038;-73
2023/01/14 01:57:16;;;;;;;48.83;6.13;;;;;;;5.87;100.00;101519.34;5022380;28;20033;-73
2023/01/14 01:59:51;;;;;;;23.88;4.40;;;;;;;5.88;100.00;101515.63;5016819;28;20049;-73
2023/01/14 02:02:19;;;;;;;26.52;5.28;;;;;;;5.89;100.00;101499.16;5023056;28;20555;-74
2023/01/14 02:04:45;;;;;;;26.70;4.15;;;;;;;5.91;100.00;101496.25;5023757;28;20029;-73
2023/01/14 02:07:22;;;;;;;36.13;5.72;;;;;;;5.94;100.00;101493.25;5020670;28;20461;-73
2023/01/14 02:09:52;;;;;;;36.72;5.78;;;;;;;5.89;100.00;101491.00;5021835;28;20036;-73
2023/01/14 02:12:42;;;;;;;35.10;5.43;;;;;;;5.95;100.00;101484.09;5022181;28;20030;-73
2023/01/14 02:15:31;;;;;;;33.67;6.15;;;;;;;5.95;100.00;101476.81;5022805;28;20388;-73
2023/01/14 02:17:59;;;;;;;39.20;5.55;;;;;;;5.94;100.00;101476.94;5037571;28;20061;-74
2023/01/14 02:20:29;;;;;;;40.35;6.90;;;;;;;5.86;100.00;101460.53;5027330;28;20493;-73
2023/01/14 02:23:19;;;;;;;31.95;5.82;;;;;;;5.88;100.00;101463.97;5024759;28;20029;-74
2023/01/14 02:26:12;;;;;;;30.77;5.38;;;;;;;5.87;100.00;101454.09;5024516;28;20138;-73
2023/01/14 02:29:12;;;;;;;43.63;6.15;;;;;;;5.86;100.00;101453.25;5021512;28;20032;-73
2023/01/14 02:32:05;;;;;;;36.35;5.85;;;;;;;5.83;100.00;101458.13;5026142;28;20045;-74
2023/01/14 02:34:56;;;;;;;31.98;6.30;;;;;;;5.90;100.00;101456.50;5023276;28;20047;-73
2023/01/14 02:37:31;;;;;;;29.48;5.82;;;;;;;5.85;100.00;101458.81;5027133;28;20038;-74
2023/01/14 02:40:15;;;;;;;38.05;6.15;;;;;;;5.84;100.00;101448.97;5025074;28;20048;-73
2023/01/14 02:46:40;;;;;;;29.40;5.55;;;;;;;5.84;100.00;101448.97;5024781;28;20044;-73
2023/01/14 02:49:11;;;;;;;40.30;6.18;;;;;;;5.82;100.00;101440.13;5021357;28;20072;-73
2023/01/14 02:51:37;;;;;;;40.88;5.50;;;;;;;5.80;100.00;101439.41;5020103;28;20025;-73
2023/01/14 02:54:03;;;;;;;39.45;5.90;;;;;;;5.88;100.00;101431.34;5025485;28;20485;-73
2023/01/14 02:56:28;;;;;;;39.97;6.10;;;;;;;5.89;100.00;101424.91;5023111;28;20029;-73
2023/01/14 02:59:01;;;;;;;43.05;6.07;;;;;;;5.92;100.00;101413.72;5025229;28;20780;-73
2023/01/14 03:01:35;;;;;;;42.67;5.57;;;;;;;5.96;100.00;101399.66;5021025;28;20037;-73
2023/01/14 03:04:31;;;;;;;45.80;7.75;;;;;;;6.07;100.00;101401.28;5031624;28;20033;-73
2023/01/14 03:07:16;;;;;;;41.92;6.28;;;;;;;6.09;100.00;101394.69;5023928;28;20072;-73
2023/01/14 03:09:54;;;;;;;45.40;7.38;;;;;;;6.10;100.00;101392.81;5019659;28;20061;-73
2023/01/14 03:12:41;;;;;;;38.85;5.75;;;;;;;6.18;100.00;101395.59;5023016;28;20029;-74
2023/01/14 03:15:34;;;;;;;38.40;6.78;;;;;;;6.14;100.00;101384.19;5026115;28;20034;-73
2023/01/14 03:18:17;;;;;;;45.95;7.68;;;;;;;6.18;100.00;101382.00;5025140;28;20025;-73
2023/01/14 03:20:51;;;;;;;37.80;5.90;;;;;;;6.15;100.00;101390.50;5019419;28;20032;-73
2023/01/14 03:23:20;;;;;;;39.47;7.40;;;;;;;6.18;100.00;101388.31;5020591;28;20038;-75
2023/01/14 03:25:49;;;;;;;49.70;6.50;;;;;;;6.19;100.00;101379.13;5024435;28;20477;-73
2023/01/14 03:28:22;;;;;;;57.47;6.18;;;;;;;6.22;100.00;101384.28;5025486;28;20453;-74
2023/01/14 03:30:54;;;;;;;39.53;6.60;;;;;;;6.26;100.00;101373.94;5024507;28;20112;-73
2023/01/14 03:33:33;;;;;;;38.72;7.15;;;;;;;6.24;100.00;101365.09;5020851;28;20064;-75
2023/01/14 03:35:59;;;;;;;47.00;8.23;;;;;;;6.18;100.00;101362.97;5022772;28;20037;-75
2023/01/14 03:38:34;;;;;;;47.45;8.15;;;;;;;6.22;100.00;101359.81;5018048;28;20064;-75
2023/01/14 03:41:03;;;;;;;38.53;6.55;;;;;;;6.22;100.00;101364.38;5023656;28;20025;-75
2023/01/14 03:43:36;;;;;;;42.22;7.05;;;;;;;6.23;100.00;101349.75;5023631;28;22125;-75
2023/01/14 03:46:02;;;;;;;52.03;6.63;;;;;;;6.20;100.00;101342.78;5019794;28;20068;-75
2023/01/14 03:48:28;;;;;;;40.88;7.13;;;;;;;6.25;100.00;101334.16;5020485;28;20036;-75
2023/01/14 03:51:05;;;;;;;47.45;7.00;;;;;;;6.18;100.00;101327.63;5022006;28;20112;-75
2023/01/14 03:53:59;;;;;;;42.35;6.43;;;;;;;6.15;100.00;101312.47;5028012;28;20137;-75
2023/01/14 03:56:34;;;;;;;43.35;9.15;;;;;;;6.23;100.00;101308.97;5019382;28;20469;-75
2023/01/14 03:59:08;;;;;;;53.15;6.28;;;;;;;6.21;100.00;101300.13;5027033;28;20389;-75
2023/01/14 04:01:41;;;;;;;38.28;6.60;;;;;;;6.19;100.00;101286.66;5018782;28;20044;-75
2023/01/14 04:04:07;;;;;;;37.63;6.60;;;;;;;6.23;100.00;101276.31;5019653;28;20551;-75
2023/01/14 04:06:33;;;;;;;46.13;5.47;;;;;;;6.21;100.00;101271.06;5022324;28;20489;-75
2023/01/14 04:08:58;;;;;;;48.90;7.35;;;;;;;6.22;100.00;101275.50;5021735;28;20044;-75
2023/01/14 04:11:24;;;;;;;42.47;6.40;;;;;;;6.21;100.00;101279.22;5022277;28;20553;-75
2023/01/14 04:16:34;;;;;;;50.20;7.68;;;;;;;6.30;100.00;101266.53;5022547;28;20049;-75
2023/01/14 04:18:59;;;;;;;38.15;5.88;;;;;;;6.31;100.00;101257.34;5022923;28;20025;-75
2023/01/14 04:21:24;;;;;;;45.72;6.65;;;;;;;6.31;100.00;101255.47;5025806;28;20171;-75
2023/01/14 04:23:50;;;;;;;43.40;7.00;;;;;;;6.36;100.00;101246.84;5019487;28;20033;-75
2023/01/14 04:26:15;;;;;;;39.72;6.72;;;;;;;6.39;100.00;101241.06;5025931;28;20034;-76
2023/01/14 04:28:40;;;;;;;31.02;5.85;;;;;;;6.35;100.00;101237.81;5024988;28;20025;-76
2023/01/14 04:31:06;;;;;;;40.28;6.18;;;;;;;6.36;100.00;101228.63;5026858;28;20100;-75
2023/01/14 04:33:31;;;;;;;37.92;5.70;;;;;;;6.40;100.00;101231.91;5020133;28;20033;-75
2023/01/14 04:35:57;;;;;;;46.15;6.32;;;;;;;6.43;100.00;101237.88;5024294;28;20060;-75
2023/01/14 04:38:23;;;;;;;45.33;6.30;;;;;;;6.34;100.00;101236.13;5022292;28;20477;-75
2023/01/14 04:40:54;;;;;;;29.88;5.35;;;;;;;6.35;100.00;101224.22;5026527;28;20420;-75
2023/01/14 04:43:21;;;;;;;38.17;5.95;;;;;;;6.38;100.00;101220.31;5020728;28;20083;-75
2023/01/14 04:45:53;;;;;;;38.08;5.75;;;;;;;6.29;100.00;101211.25;5026481;28;20444;-75
2023/01/14 04:48:21;;;;;;;37.40;5.63;;;;;;;6.33;100.00;101207.22;5023270;28;20033;-75
2023/01/14 04:50:47;;;;;;;51.05;6.25;;;;;;;6.36;100.00;101217.75;5020351;28;20091;-75
2023/01/14 04:53:13;;;;;;;34.35;4.55;;;;;;;6.48;100.00;101204.75;5020787;28;20072;-75
2023/01/14 04:55:42;;;;;;;30.15;4.78;;;;;;;6.43;100.00;101207.97;5021090;28;20683;-75
2023/01/14 04:58:09;;;;;;;29.45;5.00;;;;;;;6.38;100.00;101207.59;5019481;28;20037;-75
2023/01/14 05:00:35;;;;;;;30.70;5.35;;;;;;;6.38;100.00;101199.44;5024004;28;20072;-75
2023/01/14 05:03:03;;;;;;;41.47;5.50;;;;;;;6.36;100.00;101206.03;5028652;28;20037;-75
2023/01/14 05:05:28;;;;;;;39.75;5.35;;;;;;;6.36;100.00;101195.16;5015365;28;20065;-75
2023/01/14 05:07:54;;;;;;;28.73;4.60;;;;;;;6.31;100.00;101195.63;5025378;28;20068;-75
2023/01/14 05:10:19;;;;;;;32.20;4.40;;;;;;;6.31;100.00;101192.06;5023129;28;20065;-75
2023/01/14 05:13:07;;;;;;;30.73;5.35;;;;;;;6.29;100.00;101186.78;5022370;28;20069;-75
2023/01/14 05:15:33;;;;;;;36.50;5.85;;;;;;;6.31;100.00;101178.47;5022622;28;20370;-75
2023/01/14 05:17:59;;;;;;;37.58;6.32;;;;;;;6.27;100.00;101179.81;5018660;28;20025;-75
2023/01/14 05:20:26;;;;;;;30.90;4.93;;;;;;;6.30;100.00;101171.34;5026872;28;20052;-74
2023/01/14 05:22:57;;;;;;;39.65;5.55;;;;;;;6.35;100.00;101160.81;5019254;28;20278;-74
2023/01/14 05:25:23;;;;;;;36.25;4.85;;;;;;;6.28;100.00;101144.28;5021063;28;20401;-75
2023/01/14 05:27:48;;;;;;;43.13;5.78;;;;;;;6.38;100.00;101139.56;5022734;28;20056;-75
2023/01/14 05:30:14;;;;;;;25.83;5.78;;;;;;;6.41;100.00;101130.25;5016977;28;20033;-75
2023/01/14 05:32:40;;;;;;;27.83;5.15;;;;;;;6.40;100.00;101126.66;5027296;28;20037;-75
2023/01/14 05:35:06;;;;;;;24.20;5.60;;;;;;;6.42;100.00;101116.44;5019978;28;20083;-75
2023/01/14 05:37:33;;;;;;;35.53;5.45;;;;;;;6.47;100.00;101113.25;5022101;28;20034;-75
2023/01/14 05:39:58;;;;;;;24.75;5.05;;;;;;;6.50;100.00;101104.75;5019787;28;20153;-75
2023/01/14 05:47:54;;;;;;;34.17;4.57;;;;;;;6.48;100.00;101090.47;5019248;28;20036;-75
2023/01/14 05:50:19;;;;;;;40.08;7.20;;;;;;;6.50;100.00;101081.13;5025567;28;20537;-75
2023/01/14 05:52:44;;;;;;;27.17;5.22;;;;;;;6.54;100.00;101078.91;5022522;28;20133;-75
2023/01/14 05:55:10;;;;;;;40.20;5.88;;;;;;;6.52;100.00;101070.06;5026147;28;20041;-75
2023/01/14 05:57:35;;;;;;;29.08;5.05;;;;;;;6.58;100.00;101058.53;5026675;28;20091;-75
2023/01/14 06:00:01;;;;;;;31.60;4.78;;;;;;;6.56;100.00;101057.84;5031273;28;20032;-75
2023/01/14 06:07:58;;;;;;;38.58;4.88;;;;;;;6.52;100.00;101032.81;5029886;28;20039;-75
2023/01/14 06:10:26;;;;;;;30.25;4.00;;;;;;;6.58;100.00;101034.03;5022664;28;20109;-75
2023/01/14 06:12:58;;;;;;;36.13;6.03;;;;;;;6.58;100.00;101020.44;5025130;28;20056;-75
2023/01/14 06:15:25;;;;;;;27.42;4.70;;;;;;;6.62;100.00;101011.75;5026825;28;20037;-75
2023/01/14 06:17:58;;;;;;;42.67;4.68;;;;;;;6.57;100.00;101007.84;5025891;28;20037;-75
2023/01/14 06:20:25;;;;;;;29.83;4.63;;;;;;;6.59;100.00;100993.06;5024419;28;20043;-75
2023/01/14 06:22:54;;;;;;;28.77;4.55;;;;;;;6.59;100.00;100981.31;5023503;28;20084;-75
2023/01/14 06:25:19;;;;;;;28.05;4.72;;;;;;;6.54;100.00;100984.53;5022983;28;20041;-75
2023/01/14 06:27:44;;;;;;;29.90;3.75;;;;;;;6.57;100.00;100976.03;5026588;28;20041;-75
2023/01/14 06:30:10;;;;;;;36.67;4.70;;;;;;;6.49;100.00;100969.72;5020873;28;20117;-75
2023/01/14 06:32:36;;;;;;;32.78;4.65;;;;;;;6.43;100.00;100956.78;5020565;28;20444;-74
2023/01/14 06:35:01;;;;;;;25.15;4.75;;;;;;;6.49;100.00;100956.13;5025780;28;20388;-74
2023/01/14 06:37:26;;;;;;;28.58;5.05;;;;;;;6.42;100.00;100963.25;5024884;28;20429;-74
2023/01/14 06:39:52;;;;;;;33.17;4.18;;;;;;;6.38;100.00;100940.13;5022159;28;20079;-74
2023/01/14 06:42:17;;;;;;;36.55;4.95;;;;;;;6.37;100.00;100936.56;5023240;28;20025;-73
2023/01/14 06:44:42;;;;;;;19.17;4.05;;;;;;;6.38;100.00;100929.25;5022778;28;20087;-73
2023/01/14 06:47:08;;;;;;;25.88;3.85;;;;;;;6.36;100.00;100923.97;5026517;28;20021;-73
2023/01/14 06:49:33;;;;;;;25.88;4.93;;;;;;;6.34;100.00;100931.44;5021988;28;20132;-74
2023/01/14 06:51:58;;;;;;;32.13;4.10;;;;;;;6.33;100.00;100910.72;5027125;28;20115;-74
2023/01/14 06:54:24;;;;;;;27.27;5.03;;;;;;;6.32;100.00;100906.31;5028532;28;20057;-73
2023/01/14 06:56:49;;;;;;;27.10;4.40;;;;;;;6.31;100.00;100898.31;5025448;28;20049;-73
2023/01/14 06:59:15;;;;;;;31.08;4.88;;;;;;;6.28;100.00;100891.34;5023591;28;20125;-73
2023/01/14 07:01:40;;;;;;;28.13;4.30;;;;;;;6.27;100.00;100877.91;5025769;28;20419;-73
2023/01/14 07:04:05;;;;;;;30.33;5.28;;;;;;;6.26;100.00;100873.47;5024043;28;20433;-74
2023/01/14 07:06:31;;;;;;;24.65;4.55;;;;;;;6.28;100.00;100858.69;5023445;28;20025;-73
2023/01/14 07:08:56;;;;;;;39.78;6.15;;;;;;;6.30;100.00;100847.66;5023001;28;20057;-73
2023/01/14 07:11:21;;;;;;;31.25;4.75;;;;;;;6.26;100.00;100844.41;5023553;28;20029;-73
2023/01/14 07:13:47;;;;;;;30.48;4.90;;;;;;;6.26;100.00;100838.94;5024159;28;20033;-73
2023/01/14 07:16:12;;;;;;;33.80;5.65;;;;;;;6.31;100.00;100843.91;5024660;28;20041;-73
2023/01/14 07:18:37;;;;;;;24.55;3.38;;;;;;;6.29;100.00;100818.72;5021099;28;20075;-73
2023/01/14 07:21:03;;;;;;;20.75;3.65;;;;;;;6.35;100.00;100818.91;5023483;28;20931;-73
2023/01/14 07:23:28;;;;;;;27.90;4.65;;;;;;;6.32;100.00;100812.97;5026087;28;20033;-74
2023/01/14 07:25:57;;;;;;;26.23;4.90;;;;;;;6.38;100.00;100812.28;5026344;28;20108;-73
2023/01/14 07:28:27;;;;;;;16.95;4.45;;;;;;;6.36;100.00;100804.28;5023684;28;20121;-73
2023/01/14 07:30:53;;;;;;;22.23;4.10;;;;;;;6.38;100.00;100790.50;5022126;28;20033;-73
2023/01/14 07:33:20;;;;;;;25.05;4.68;;;;;;;6.35;100.00;100777.28;5021608;28;20042;-74
2023/01/14 07:35:47;;;;;;;21.63;3.63;;;;;;;6.42;100.00;100765.50;5022204;28;20113;-73
2023/01/14 07:38:12;;;;;;;;;;;;;;;6.43;100.00;100744.59;5023028;28;20038;-73
2023/01/14 07:40:38;;;;;;;17.20;4.45;;;;;;;6.43;100.00;100736.44;5025305;28;19928;-73
2023/01/14 07:43:03;;;;;;;25.08;4.78;;;;;;;6.40;100.00;100720.47;5023368;28;20021;-74
2023/01/14 07:45:28;;;;;;;25.10;4.35;;;;;;;6.46;100.00;100714.34;5019976;28;20397;-73
2023/01/14 07:47:55;;;;;;;18.92;3.60;;;;;;;6.48;100.00;100712.28;5022194;28;20112;-73
2023/01/14 07:50:21;;;;;;;15.43;4.35;;;;;;;6.47;100.00;100702.44;5023938;28;20028;-73
2023/01/14 07:52:58;;;;;;;16.30;3.83;;;;;;;6.50;100.00;100694.75;5023117;28;20107;-73
2023/01/14 07:55:25;;;;;;;16.43;4.10;;;;;;;6.57;100.00;100689.47;5019172;28;20025;-73
2023/01/14 07:57:50;;;;;;;16.25;4.50;;;;;;;6.53;100.00;100678.09;5032835;28;20543;-73
2023/01/14 08:00:16;;;;;;;18.52;3.83;;;;;;;6.56;100.00;100674.19;5025324;28;20095;-73
2023/01/14 08:02:42;;;;;;;16.90;4.10;;;;;;;6.63;100.00;100662.38;5021317;28;20035;-73
2023/01/14 08:05:07;;;;;;;17.25;4.32;;;;;;;6.68;100.00;100659.16;5021637;28;20033;-73
2023/01/14 08:07:33;;;;;;;13.63;4.00;;;;;;;6.66;100.00;100645.72;5025376;28;20044;-73
2023/01/14 08:09:58;;;;;;;20.08;4.32;;;;;;;6.67;100.00;100638.41;5026188;28;20129;-73
2023/01/14 08:12:24;;;;;;;16.98;5.43;;;;;;;6.72;100.00;100633.28;5017554;28;20123;-73
2023/01/14 08:14:50;;;;;;;13.80;3.97;;;;;;;6.75;100.00;100641.09;5025647;28;20036;-74
2023/01/14 08:17:15;;;;;;;13.52;4.47;;;;;;;6.75;100.00;100620.16;5023256;28;20029;-74
2023/01/14 08:19:41;;;;;;;8.13;3.80;;;;;;;6.78;100.00;100602.63;5020020;28;20021;-74
2023/01/14 08:22:06;;;;;;;9.48;3.55;;;;;;;6.82;100.00;100599.38;5023547;28;20075;-74
2023/01/14 08:24:32;;;;;;;13.80;4.50;;;;;;;6.85;100.00;100592.72;5021014;28;20020;-74
2023/01/14 08:26:57;;;;;;;14.40;5.07;;;;;;;6.85;100.00;100592.72;5025502;28;20376;-73
2023/01/14 08:29:22;;;;;;;13.18;5.15;;;;;;;6.88;100.00;100587.75;5023402;28;20025;-73
2023/01/14 08:31:54;;;;;;;14.52;4.13;;;;;;;6.97;100.00;100588.53;5042428;28;20419;-74
2023/01/14 08:34:20;;;;;;;10.25;3.67;;;;;;;7.00;100.00;100583.56;5020991;28;20057;-74
2023/01/14 08:36:46;;;;;;;17.30;4.32;;;;;;;7.04;100.00;100575.91;5024892;28;20037;-74
2023/01/14 08:39:11;;;;;;;13.52;4.38;;;;;;;7.10;100.00;100569.75;5020587;28;20458;-74
2023/01/14 08:41:37;;;;;;;18.65;4.80;;;;;;;7.21;100.00;100550.25;5023788;28;20457;-74
2023/01/14 08:44:02;;;;;;;17.05;5.32;;;;;;;7.16;100.00;100545.34;5022348;28;20038;-74
2023/01/14 08:46:27;;;;;;;13.77;4.15;;;;;;;7.23;100.00;100545.47;5017212;28;20120;-73
2023/01/14 08:48:53;;;;;;;12.60;4.50;;;;;;;7.25;100.00;100527.03;5026083;28;20033;-73
2023/01/14 08:51:20;;;;;;;17.17;4.60;;;;;;;7.30;100.00;100528.19;5023157;28;20041;-74
2023/01/14 08:53:45;;;;;;;16.23;4.55;;;;;;;7.36;100.00;100515.72;5020614;28;20091;-74
2023/01/14 08:56:16;;;;;;;12.75;3.70;;;;;;;7.39;100.00;100504.44;5021751;28;20045;-74
2023/01/14 08:58:42;;;;;;;12.57;5.05;;;;;;;7.47;100.00;100501.66;5023371;28;20031;-74
2023/01/14 09:01:08;;;;;;;17.55;4.53;;;;;;;7.45;100.00;100481.91;5023883;28;20028;-74
2023/01/14 09:03:36;;;;;;;14.57;4.20;;;;;;;7.46;100.00;100459.91;5021563;28;20429;-73
2023/01/14 09:06:12;;;;;;;20.35;4.07;;;;;;;7.54;100.00;100450.81;5025658;28;20029;-73
2023/01/14 09:17:07;;;;;;;16.45;3.60;;;;;;;7.65;100.00;100420.34;5014513;28;20140;-73
2023/01/14 09:20:02;;;;;;;20.00;3.45;;;;;;;7.67;100.00;100407.38;5021870;28;20067;-73
2023/01/14 09:22:29;;;;;;;14.63;3.28;;;;;;;7.71;100.00;100400.50;5017653;28;20552;-73
2023/01/14 09:24:55;;;;;;;14.15;3.35;;;;;;;7.67;100.00;100421.88;5029185;28;20032;-73
2023/01/14 09:27:21;;;;;;;7.57;2.70;;;;;;;7.73;100.00;100406.63;5058465;28;20116;-73
2023/01/14 09:29:46;;;;;;;6.78;2.95;;;;;;;7.76;100.00;100401.66;5026377;28;20036;-73
2023/01/14 09:32:15;;;;;;;18.40;4.50;;;;;;;7.81;100.00;100401.94;5029328;28;20053;-73
2023/01/14 09:34:42;;;;;;;20.25;3.55;;;;;;;7.82;100.00;100394.56;5020891;28;20029;-73
2023/01/14 09:37:10;;;;;;;12.00;3.20;;;;;;;7.79;100.00;100386.78;5021538;28;20033;-73
2023/01/14 09:39:36;;;;;;;18.67;3.40;;;;;;;7.87;100.00;100378.50;5028953;28;20023;-74
2023/01/14 09:42:08;;;;;;;9.45;2.78;;;;;;;7.90;100.00;100373.50;5029983;28;20037;-73
2023/01/14 09:44:34;;;;;;;12.85;3.15;;;;;;;7.90;100.00;100372.66;5024451;28;20435;-73
2023/01/14 09:46:59;;;;;;;8.30;3.17;;;;;;;7.94;100.00;100368.50;5021588;28;20057;-74
2023/01/14 09:49:27;;;;;;;13.43;3.05;;;;;;;7.95;100.00;100370.22;5026156;28;20064;-74
2023/01/14 09:52:08;;;;;;;11.73;2.60;;;;;;;8.00;100.00;100370.50;5025652;28;20036;-74
2023/01/14 09:54:54;;;;;;;8.48;2.60;;;;;;;8.02;100.00;100352.03;5024420;28;20490;-74
2023/01/14 09:57:44;;;;;;;13.88;2.65;;;;;;;8.08;100.00;100341.22;5025168;28;20083;-73
2023/01/14 10:00:27;;;;;;;12.75;3.70;;;;;;;8.12;100.00;100338.94;5024961;28;20048;-74
2023/01/14 10:03:14;;;;;;;12.77;2.65;;;;;;;8.15;100.00;100330.34;5018073;28;20021;-74
2023/01/14 10:05:42;;;;;;;11.82;3.47;;;;;;;8.15;100.00;100303.06;5059145;28;20026;-74
2023/01/14 10:08:14;;;;;;;9.73;2.38;;;;;;;8.23;100.00;100297.53;5029760;28;20037;-74
2023/01/14 10:10:45;;;;;;;10.75;2.90;;;;;;;8.30;100.00;100295.69;5026061;28;20590;-74
2023/01/14 10:13:32;;;;;;;12.48;3.00;;;;;;;8.33;100.00;100273.47;5027290;28;20025;-74
2023/01/14 10:16:02;;;;;;;14.35;2.70;;;;;;;8.39;100.00;100256.31;5021488;28;20069;-74
2023/01/14 10:18:44;;;;;;;10.38;2.80;;;;;;;8.42;100.00;100261.38;5025619;28;20028;-74
2023/01/14 10:21:42;;;;;;;11.80;3.03;;;;;;;8.45;100.00;100264.56;5027890;28;20517;-74
2023/01/14 10:24:12;;;;;;;11.43;3.15;;;;;;;8.44;100.00;100248.38;5023811;28;20401;-73
2023/01/14 10:26:39;;;;;;;9.90;3.30;;;;;;;8.50;100.00;100234.75;5025987;28;20524;-73
2023/01/14 10:29:13;;;;;;;13.20;2.75;;;;;;;8.52;100.00;100224.50;5024748;28;20613;-73
2023/01/14 10:31:44;;;;;;;5.55;2.00;;;;;;;8.53;100.00;100211.69;5027754;28;20087;-73
2023/01/14 10:34:12;;;;;;;12.30;3.25;;;;;;;8.52;100.00;100207.28;5018536;28;20116;-73
2023/01/14 10:36:37;;;;;;;14.43;3.88;;;;;;;8.56;100.00;100209.44;5028781;28;20025;-74
2023/01/14 10:39:03;;;;;;;15.57;4.18;;;;;;;8.58;100.00;100195.56;5025937;28;20047;-73
2023/01/14 10:44:27;;;;;;;9.88;1.98;;;;;;;8.67;100.00;100194.38;5026920;28;20107;-73
2023/01/14 10:47:09;;;;;;;12.63;2.92;;;;;;;8.67;100.00;100186.16;5021684;28;20437;-73
2023/01/14 10:49:50;;;;;;;9.32;2.30;;;;;;;8.69;100.00;100159.50;5022639;28;20778;-74
2023/01/14 10:52:30;;;;;;;11.15;3.33;;;;;;;8.70;100.00;100163.94;5017657;28;20110;-74
2023/01/14 10:55:01;;;;;;;7.65;2.17;;;;;;;8.75;100.00;100153.25;5022812;28;20045;-73
2023/01/14 10:57:34;;;;;;;9.77;3.05;;;;;;;8.78;100.00;100141.91;5027679;28;20041;-73
2023/01/14 11:00:00;;;;;;;10.13;2.38;;;;;;;8.86;100.00;100131.66;5020356;28;20029;-74
2023/01/14 11:02:35;;;;;;;7.45;3.58;;;;;;;8.86;100.00;100128.94;5019901;28;20504;-73
2023/01/14 11:05:23;;;;;;;7.13;2.08;;;;;;;8.88;100.00;100126.84;5025956;28;20056;-73
2023/01/14 11:07:51;;;;;;;6.72;2.30;;;;;;;8.91;100.00;100117.41;5024076;28;20037;-74
2023/01/14 11:10:21;;;;;;;10.35;2.33;;;;;;;8.93;100.00;100112.56;5020257;28;20478;-74
2023/01/14 11:12:47;;;;;;;8.73;2.22;;;;;;;8.96;100.00;100104.00;5023746;28;20033;-74
2023/01/14 11:15:36;;;;;;;9.18;2.05;;;;;;;9.01;100.00;100085.06;5024460;28;20025;-74
2023/01/14 11:18:24;;;;;;;4.00;1.88;;;;;;;9.08;100.00;100075.03;5023201;28;20026;-74
2023/01/14 11:21:06;;;;;;;5.82;2.00;;;;;;;9.06;100.00;100077.09;5023232;28;20489;-75
2023/01/14 11:23:42;;;;;;;6.18;2.05;;;;;;;9.10;100.00;100079.22;5022774;28;20457;-75
2023/01/14 11:26:27;;;;;;;5.45;2.78;;;;;;;9.18;100.00;100073.56;5025530;28;20370;-74
2023/01/14 11:28:53;;;;;;;6.32;1.90;;;;;;;9.21;100.00;100081.34;5025566;28;20029;-75
2023/01/14 11:31:40;;;;;;;6.68;1.70;;;;;;;9.23;100.00;100056.56;5016710;28;20404;-73
2023/01/14 11:34:21;;;;;;;15.57;2.13;;;;;;;9.29;100.00;100072.13;5019950;28;20072;-74
2023/01/14 11:36:46;;;;;;;6.55;1.98;;;;;;;9.32;100.00;100071.69;5023787;28;20500;-74
2023/01/14 11:39:19;;;;;;;6.63;1.67;;;;;;;9.30;100.00;100035.53;5027023;28;20484;-74
2023/01/14 11:41:44;;;;;;;3.25;2.10;;;;;;;9.36;100.00;100029.22;5028736;28;20016;-74
2023/01/14 11:44:10;;;;;;;2.38;1.63;;;;;;;9.39;100.00;100015.16;5024942;28;20036;-74
2023/01/14 11:46:41;;;;;;;5.33;2.33;;;;;;;9.39;100.00;100018.72;5026032;28;20071;-74
2023/01/14 11:49:17;;;;;;;4.32;1.50;;;;;;;9.40;100.00;100016.84;5027179;28;20073;-74
2023/01/14 11:51:59;;;;;;;5.57;1.50;;;;;;;9.42;100.00;100003.78;5019312;28;20156;-74
2023/01/14 11:54:36;;;;;;;3.65;1.60;;;;;;;9.42;100.00;100001.06;5021570;28;20463;-74
2023/01/14 11:57:03;;;;;;;5.82;1.83;;;;;;;9.48;100.00;100002.94;5024163;28;20405;-73
2023/01/14 11:59:32;;;;;;;9.38;2.45;;;;;;;9.45;100.00;99970.59;5025240;28;20071;-74
2023/01/14 12:02:26;;;;;;;3.30;1.98;;;;;;;9.53;100.00;99970.34;5021461;28;20028;-74